createdAt,value
2023-06-14T00:01:50.968Z,6.57
2023-06-14T00:04:19.429Z,6.50
2023-06-14T00:06:46.680Z,6.50
2023-06-14T00:09:14.416Z,8.23
2023-06-14T00:11:42.797Z,6.68
2023-06-14T00:14:10.107Z,7.50
2023-06-14T00:16:38.350Z,7.28
2023-06-14T00:19:06.380Z,6.68
2023-06-14T00:21:33.806Z,7.32
2023-06-14T00:24:01.228Z,7.97
2023-06-14T00:26:28.463Z,7.68
2023-06-14T00:28:56.209Z,7.57
2023-06-14T00:31:24.161Z,8.27
2023-06-14T00:33:51.413Z,8.60
2023-06-14T00:36:18.787Z,8.68
2023-06-14T00:38:46.035Z,8.13
2023-06-14T00:41:13.250Z,7.70
2023-06-14T00:43:43.393Z,8.40
2023-06-14T00:46:10.718Z,7.68
2023-06-14T00:48:40.247Z,7.03
2023-06-14T00:51:07.888Z,7.97
2023-06-14T00:53:37.120Z,7.40
2023-06-14T00:56:05.038Z,7.78
2023-06-14T00:58:33.520Z,8.07
2023-06-14T01:01:00.904Z,8.20
2023-06-14T01:03:29.677Z,8.93
2023-06-14T01:06:28.103Z,8.55
2023-06-14T01:09:42.121Z,8.10
2023-06-14T01:12:18.522Z,8.90
2023-06-14T01:14:47.197Z,8.30
2023-06-14T01:17:17.965Z,8.48
2023-06-14T01:19:46.937Z,9.25
2023-06-14T01:22:16.099Z,8.23
2023-06-14T01:24:46.258Z,8.07
2023-06-14T01:27:14.642Z,7.75
2023-06-14T01:29:47.166Z,8.38
2023-06-14T01:32:17.288Z,7.72
2023-06-14T01:34:44.623Z,7.70
2023-06-14T01:37:14.386Z,7.43
2023-06-14T01:39:43.966Z,7.00
2023-06-14T01:42:13.096Z,7.73
2023-06-14T01:44:44.403Z,7.35
2023-06-14T01:47:13.237Z,7.97
2023-06-14T01:49:41.223Z,7.85
2023-06-14T01:52:11.297Z,7.70
2023-06-14T01:54:43.390Z,7.88
2023-06-14T01:57:11.811Z,8.13
2023-06-14T01:59:39.247Z,8.15
2023-06-14T02:02:06.451Z,8.00
2023-06-14T02:04:33.836Z,8.52
2023-06-14T02:07:01.212Z,8.70
2023-06-14T02:09:28.467Z,8.85
2023-06-14T02:11:56.004Z,8.50
2023-06-14T02:14:24.519Z,9.30
2023-06-14T02:16:51.881Z,8.30
2023-06-14T02:19:21.736Z,8.70
2023-06-14T02:21:49.687Z,10.20
2023-06-14T02:24:17.991Z,9.65
2023-06-14T02:26:45.344Z,9.48
2023-06-14T02:29:17.360Z,8.68
2023-06-14T02:31:44.569Z,8.93
2023-06-14T02:34:13.205Z,9.02
2023-06-14T02:36:42.943Z,9.35
2023-06-14T02:39:12.050Z,9.25
2023-06-14T02:41:39.667Z,9.30
2023-06-14T02:44:08.260Z,9.90
2023-06-14T02:46:35.827Z,9.27
2023-06-14T02:49:03.544Z,10.05
2023-06-14T02:51:32.279Z,9.35
2023-06-14T02:53:59.464Z,9.02
2023-06-14T02:56:27.464Z,9.18
2023-06-14T02:58:55.096Z,9.15
2023-06-14T03:01:23.048Z,9.05
2023-06-14T03:03:51.047Z,9.00
2023-06-14T03:06:18.494Z,10.05
2023-06-14T03:08:50.129Z,9.20
2023-06-14T03:11:21.934Z,8.82
2023-06-14T03:13:49.966Z,9.85
2023-06-14T03:16:19.775Z,9.80
2023-06-14T03:18:47.258Z,10.10
2023-06-14T03:21:17.143Z,9.00
2023-06-14T03:23:46.095Z,8.48
2023-06-14T03:26:19.157Z,8.75
2023-06-14T03:28:50.866Z,9.23
2023-06-14T03:31:20.569Z,9.48
2023-06-14T03:33:49.208Z,8.95
2023-06-14T03:36:16.519Z,8.48
2023-06-14T03:38:44.379Z,9.32
2023-06-14T03:41:13.226Z,8.60
2023-06-14T03:43:40.910Z,8.70
2023-06-14T03:46:08.688Z,8.88
2023-06-14T03:48:36.603Z,8.30
2023-06-14T03:51:04.120Z,8.98
2023-06-14T03:53:32.034Z,7.95
2023-06-14T03:56:01.359Z,8.23
2023-06-14T03:58:37.629Z,7.88
2023-06-14T04:01:05.453Z,9.70
2023-06-14T04:03:33.057Z,8.18
2023-06-14T04:06:02.239Z,7.32
2023-06-14T04:08:29.642Z,7.10
2023-06-14T04:10:59.072Z,7.18
2023-06-14T04:13:26.236Z,6.45
2023-06-14T04:15:53.918Z,6.70
2023-06-14T04:18:27.053Z,6.97
2023-06-14T04:20:54.836Z,6.43
2023-06-14T04:23:23.400Z,6.70
2023-06-14T04:25:51.099Z,6.93
2023-06-14T04:28:19.653Z,6.22
2023-06-14T04:30:49.823Z,7.07
2023-06-14T04:33:19.498Z,6.95
2023-06-14T04:35:48.931Z,6.95
2023-06-14T04:38:19.956Z,6.57
2023-06-14T04:40:47.771Z,7.18
2023-06-14T04:45:50.211Z,6.15
2023-06-14T04:48:20.779Z,7.22
2023-06-14T04:50:54.170Z,6.00
2023-06-14T04:53:24.195Z,6.15
2023-06-14T04:55:54.652Z,6.57
2023-06-14T04:58:22.724Z,6.70
2023-06-14T05:00:50.348Z,5.93
2023-06-14T05:03:19.993Z,5.72
2023-06-14T05:05:47.975Z,5.97
2023-06-14T05:08:15.192Z,5.50
2023-06-14T05:10:42.432Z,5.32
2023-06-14T05:13:09.570Z,6.30
2023-06-14T05:15:37.256Z,5.60
2023-06-14T05:18:04.559Z,5.10
2023-06-14T05:20:32.173Z,5.95
2023-06-14T05:22:59.581Z,6.15
2023-06-14T05:25:26.925Z,5.05
2023-06-14T05:27:54.126Z,5.70
2023-06-14T05:30:21.449Z,5.35
2023-06-14T05:32:48.739Z,5.90
2023-06-14T05:35:16.587Z,4.72
2023-06-14T05:37:43.926Z,4.00
2023-06-14T05:40:11.573Z,3.95
2023-06-14T05:42:38.773Z,3.70
2023-06-14T05:45:07.373Z,4.40
2023-06-14T05:47:34.745Z,4.00
2023-06-14T05:50:02.017Z,3.80
2023-06-14T05:52:32.701Z,4.20
2023-06-14T05:54:59.956Z,3.65
2023-06-14T05:57:27.151Z,3.75
2023-06-14T05:59:54.297Z,3.80
2023-06-14T06:02:21.569Z,3.67
2023-06-14T06:04:48.794Z,3.10
2023-06-14T06:07:16.074Z,3.33
2023-06-14T06:09:43.384Z,3.10
2023-06-14T06:12:11.535Z,2.80
2023-06-14T06:14:38.834Z,3.10
2023-06-14T06:17:06.409Z,2.70
2023-06-14T06:19:33.734Z,2.20
2023-06-14T06:22:00.891Z,2.70
2023-06-14T06:24:28.174Z,2.55
2023-06-14T06:26:55.361Z,2.75
2023-06-14T06:29:22.743Z,2.58
2023-06-14T06:31:49.981Z,2.80
2023-06-14T06:34:18.182Z,2.70
2023-06-14T06:36:46.252Z,2.13
2023-06-14T06:39:13.748Z,4.00
2023-06-14T06:41:41.130Z,2.30
2023-06-14T06:44:08.857Z,2.88
2023-06-14T06:46:36.293Z,2.03
2023-06-14T06:49:03.545Z,3.00
2023-06-14T06:51:30.736Z,3.15
2023-06-14T06:53:57.910Z,2.55
2023-06-14T06:56:25.662Z,2.65
2023-06-14T06:58:52.928Z,2.33
2023-06-14T07:01:21.087Z,2.05
2023-06-14T07:03:48.864Z,2.75
2023-06-14T07:06:19.820Z,1.58
2023-06-14T07:08:49.529Z,2.60
2023-06-14T07:11:16.801Z,2.10
2023-06-14T07:13:43.923Z,2.42
2023-06-14T07:16:11.305Z,2.90
2023-06-14T07:18:38.781Z,2.25
2023-06-14T07:21:06.043Z,2.10
2023-06-14T07:23:33.213Z,2.50
2023-06-14T07:26:00.447Z,2.38
2023-06-14T07:28:27.684Z,2.20
2023-06-14T07:30:54.937Z,2.10
2023-06-14T07:33:22.279Z,2.28
2023-06-14T07:35:50.525Z,1.80
2023-06-14T07:38:17.708Z,1.80
2023-06-14T07:40:44.942Z,2.25
2023-06-14T07:43:12.216Z,2.35
2023-06-14T07:45:40.159Z,2.88
2023-06-14T07:48:11.152Z,2.97
2023-06-14T07:50:38.528Z,1.98
2023-06-14T07:53:05.835Z,1.88
2023-06-14T07:55:45.574Z,2.35
2023-06-14T07:58:20.064Z,2.05
2023-06-14T08:00:48.460Z,2.50
2023-06-14T08:03:15.834Z,2.97
2023-06-14T08:05:43.669Z,2.75
2023-06-14T08:08:10.929Z,2.65
2023-06-14T08:10:38.234Z,2.30
2023-06-14T08:13:05.485Z,2.35
2023-06-14T08:15:32.950Z,2.45
2023-06-14T08:18:01.763Z,3.30
2023-06-14T08:20:29.323Z,2.83
2023-06-14T08:22:58.125Z,2.90
2023-06-14T08:25:25.815Z,3.03
2023-06-14T08:27:53.055Z,2.90
2023-06-14T08:30:20.428Z,4.30
2023-06-14T08:32:51.528Z,2.38
2023-06-14T08:35:21.191Z,2.85
2023-06-14T08:37:48.465Z,2.72
2023-06-14T08:40:23.487Z,3.03
2023-06-14T08:42:55.370Z,3.60
2023-06-14T08:45:26.289Z,3.65
2023-06-14T08:47:59.665Z,2.78
2023-06-14T08:50:32.055Z,2.80
2023-06-14T08:53:03.900Z,2.80
2023-06-14T08:55:37.128Z,3.08
2023-06-14T08:58:06.394Z,2.80
2023-06-14T09:00:34.790Z,2.70
2023-06-14T09:03:02.521Z,2.72
2023-06-14T09:05:30.251Z,2.63
2023-06-14T09:08:04.092Z,2.45
2023-06-14T09:10:39.028Z,2.60
2023-06-14T09:13:07.795Z,2.67
2023-06-14T09:15:36.528Z,2.65
2023-06-14T09:18:05.559Z,2.80
2023-06-14T09:20:33.512Z,3.00
2023-06-14T09:23:02.150Z,2.55
2023-06-14T09:27:59.625Z,2.65
2023-06-14T09:30:26.867Z,2.85
2023-06-14T09:32:54.462Z,2.63
2023-06-14T09:35:21.945Z,2.83
2023-06-14T09:37:49.137Z,2.45
2023-06-14T09:40:22.058Z,3.45
2023-06-14T09:42:49.816Z,2.97
2023-06-14T09:45:22.845Z,2.80
2023-06-14T09:48:05.420Z,3.65
2023-06-14T09:50:34.260Z,2.97
2023-06-14T09:53:08.539Z,3.00
2023-06-14T09:55:38.453Z,3.92
2023-06-14T09:58:09.087Z,2.72
2023-06-14T10:00:38.803Z,3.17
2023-06-14T10:03:21.176Z,3.92
2023-06-14T10:05:51.423Z,2.63
2023-06-14T10:08:26.085Z,2.90
2023-06-14T10:10:54.610Z,2.30
2023-06-14T10:13:22.257Z,2.13
2023-06-14T10:16:14.212Z,3.03
2023-06-14T10:19:21.838Z,2.75
2023-06-14T10:22:15.915Z,2.97
2023-06-14T10:24:44.907Z,3.15
2023-06-14T10:27:18.472Z,2.90
2023-06-14T10:29:54.626Z,2.75
2023-06-14T10:32:22.750Z,2.65
2023-06-14T10:35:01.656Z,2.38
2023-06-14T10:37:31.775Z,2.70
2023-06-14T10:39:59.233Z,2.83
2023-06-14T10:42:33.358Z,2.55
2023-06-14T10:45:01.903Z,2.78
2023-06-14T10:47:40.724Z,2.50
2023-06-14T10:50:09.382Z,2.42
2023-06-14T10:52:40.197Z,2.80
2023-06-14T10:55:20.210Z,2.75
2023-06-14T10:57:59.898Z,2.50
2023-06-14T11:00:30.094Z,2.50
2023-06-14T11:03:15.857Z,2.78
2023-06-14T11:05:59.625Z,3.25
2023-06-14T11:08:57.688Z,2.80
2023-06-14T11:11:30.920Z,2.97
2023-06-14T11:13:58.197Z,2.70
2023-06-14T11:16:28.978Z,3.15
2023-06-14T11:18:56.750Z,2.85
2023-06-14T11:21:26.453Z,2.72
2023-06-14T11:23:54.455Z,2.95
2023-06-14T11:26:32.457Z,3.20
2023-06-14T11:29:01.288Z,2.78
2023-06-14T11:31:30.064Z,2.63
2023-06-14T11:33:59.295Z,2.88
2023-06-14T11:36:33.822Z,2.42
2023-06-14T11:39:09.947Z,3.22
2023-06-14T11:41:42.613Z,2.60
2023-06-14T11:44:10.601Z,2.65
2023-06-14T11:46:37.977Z,2.05
2023-06-14T11:49:08.108Z,2.60
2023-06-14T11:51:36.053Z,2.60
2023-06-14T11:54:04.600Z,3.03
2023-06-14T11:56:35.300Z,2.40
2023-06-14T11:59:05.039Z,2.75
2023-06-14T12:01:33.390Z,2.65
2023-06-14T12:04:02.076Z,2.50
2023-06-14T12:06:34.497Z,2.30
2023-06-14T12:09:06.056Z,2.75
2023-06-14T12:11:35.031Z,2.92
2023-06-14T12:14:04.025Z,2.22
2023-06-14T12:16:37.006Z,2.50
2023-06-14T12:19:16.051Z,2.75
2023-06-14T12:21:45.564Z,2.70
2023-06-14T12:24:14.415Z,2.60
2023-06-14T12:26:42.972Z,2.65
2023-06-14T12:29:11.510Z,2.90
2023-06-14T12:31:39.214Z,2.33
2023-06-14T12:34:06.565Z,2.80
2023-06-14T12:36:33.828Z,2.65
2023-06-14T12:39:01.393Z,2.78
2023-06-14T12:41:29.165Z,2.67
2023-06-14T12:43:56.632Z,2.72
2023-06-14T12:46:23.867Z,2.65
2023-06-14T12:48:51.250Z,3.00
2023-06-14T12:51:18.449Z,2.60
2023-06-14T12:53:45.719Z,2.80
2023-06-14T12:56:12.979Z,3.00
2023-06-14T12:58:40.166Z,2.95
2023-06-14T13:01:07.443Z,2.85
2023-06-14T13:03:37.874Z,2.60
2023-06-14T13:06:05.549Z,2.67
2023-06-14T13:08:32.818Z,2.90
2023-06-14T13:11:00.030Z,2.70
2023-06-14T13:13:27.570Z,2.75
2023-06-14T13:15:54.802Z,2.63
2023-06-14T13:18:22.262Z,2.42
2023-06-14T13:20:49.625Z,3.00
2023-06-14T13:23:17.332Z,2.30
2023-06-14T13:25:45.190Z,2.88
2023-06-14T13:28:12.582Z,2.92
2023-06-14T13:30:39.866Z,2.90
2023-06-14T13:33:07.184Z,2.25
2023-06-14T13:35:34.459Z,2.60
2023-06-14T13:38:02.384Z,2.63
2023-06-14T13:40:29.843Z,2.72
2023-06-14T13:42:57.056Z,2.53
2023-06-14T13:45:24.444Z,2.35
2023-06-14T13:47:51.834Z,2.60
2023-06-14T13:50:19.400Z,2.70
2023-06-14T13:52:46.679Z,2.00
2023-06-14T13:55:13.882Z,2.70
2023-06-14T13:57:41.176Z,2.55
2023-06-14T14:00:09.769Z,3.00
2023-06-14T14:02:44.170Z,2.20
2023-06-14T14:05:11.621Z,2.50
2023-06-14T14:07:39.425Z,2.38
2023-06-14T14:10:11.338Z,2.13
2023-06-14T14:12:42.830Z,2.70
2023-06-14T14:15:14.371Z,2.30
2023-06-14T14:17:42.635Z,2.28
2023-06-14T14:20:10.723Z,2.33
2023-06-14T14:22:39.311Z,3.13
2023-06-14T14:25:06.640Z,2.58
2023-06-14T14:27:33.823Z,2.50
2023-06-14T14:30:01.200Z,2.78
2023-06-14T14:32:29.819Z,2.58
2023-06-14T14:34:57.046Z,2.58
2023-06-14T14:37:24.222Z,2.50
2023-06-14T14:39:51.360Z,2.63
2023-06-14T14:42:19.742Z,3.50
2023-06-14T14:44:47.099Z,2.47
2023-06-14T14:47:14.442Z,3.38
2023-06-14T14:49:43.044Z,2.63
2023-06-14T14:52:22.943Z,2.90
2023-06-14T14:54:52.021Z,2.33
2023-06-14T14:57:19.226Z,2.15
2023-06-14T14:59:46.758Z,2.20
2023-06-14T15:02:13.983Z,3.30
2023-06-14T15:04:41.496Z,2.70
2023-06-14T15:07:09.269Z,3.03
2023-06-14T15:09:36.618Z,2.78
2023-06-14T15:12:04.047Z,2.65
2023-06-14T15:14:31.444Z,2.35
2023-06-14T15:16:59.845Z,2.03
2023-06-14T15:19:27.243Z,2.40
2023-06-14T15:21:54.604Z,2.03
2023-06-14T15:24:34.013Z,2.45
2023-06-14T15:27:08.976Z,2.95
2023-06-14T15:29:36.475Z,4.03
2023-06-14T15:32:03.853Z,3.17
2023-06-14T15:34:31.058Z,3.35
2023-06-14T15:36:58.449Z,2.65
2023-06-14T15:39:26.213Z,3.10
2023-06-14T15:41:53.589Z,3.60
2023-06-14T15:44:21.047Z,2.83
2023-06-14T15:46:49.493Z,3.35
2023-06-14T15:49:19.291Z,2.80
2023-06-14T15:51:47.208Z,3.03
2023-06-14T15:54:14.825Z,2.97
2023-06-14T15:56:42.062Z,2.78
2023-06-14T15:59:09.266Z,2.90
2023-06-14T16:01:37.672Z,2.55
2023-06-14T16:04:06.002Z,2.97
2023-06-14T16:06:37.272Z,2.88
2023-06-14T16:09:05.448Z,2.53
2023-06-14T16:11:32.671Z,2.90
2023-06-14T16:13:59.915Z,3.17
2023-06-14T16:16:27.308Z,3.00
2023-06-14T16:18:55.583Z,3.08
2023-06-14T16:21:22.905Z,3.10
2023-06-14T16:23:50.297Z,2.42
2023-06-14T16:26:17.572Z,2.83
2023-06-14T16:28:45.177Z,3.15
2023-06-14T16:31:15.935Z,2.80
2023-06-14T16:33:43.141Z,4.78
2023-06-14T16:36:10.249Z,2.83
2023-06-14T16:38:37.449Z,2.88
2023-06-14T16:41:04.790Z,2.72
2023-06-14T16:43:32.093Z,2.80
2023-06-14T16:45:59.290Z,2.47
2023-06-14T16:48:26.482Z,2.40
2023-06-14T16:50:53.759Z,2.83
2023-06-14T16:53:39.717Z,3.40
2023-06-14T16:56:07.524Z,2.50
2023-06-14T16:58:34.712Z,2.55
2023-06-14T17:01:01.951Z,2.70
2023-06-14T17:03:29.249Z,2.67
2023-06-14T17:05:58.115Z,2.50
2023-06-14T17:08:26.395Z,2.80
2023-06-14T17:10:54.955Z,2.20
2023-06-14T17:13:22.711Z,2.85
2023-06-14T17:15:50.038Z,2.30
2023-06-14T17:18:17.603Z,2.30
2023-06-14T17:20:45.007Z,2.65
2023-06-14T17:23:12.213Z,3.00
2023-06-14T17:25:39.379Z,2.75
2023-06-14T17:28:06.523Z,2.53
2023-06-14T17:30:33.710Z,2.90
2023-06-14T17:33:01.137Z,2.72
2023-06-14T17:35:28.471Z,2.85
2023-06-14T17:37:55.723Z,2.60
2023-06-14T17:40:22.966Z,2.78
2023-06-14T17:42:50.160Z,2.83
2023-06-14T17:45:17.403Z,2.97
2023-06-14T17:47:44.629Z,2.70
2023-06-14T17:50:11.878Z,2.33
2023-06-14T17:52:39.212Z,2.50
2023-06-14T17:55:07.067Z,2.90
2023-06-14T17:57:34.283Z,2.80
2023-06-14T18:00:01.544Z,2.80
2023-06-14T18:02:33.497Z,3.28
2023-06-14T18:05:01.016Z,3.08
2023-06-14T18:07:29.318Z,2.92
2023-06-14T18:09:56.503Z,3.03
2023-06-14T18:12:23.710Z,3.15
2023-06-14T18:14:50.981Z,2.78
2023-06-14T18:17:18.320Z,3.03
2023-06-14T18:19:45.693Z,3.40
2023-06-14T18:22:13.022Z,3.08
2023-06-14T18:24:40.283Z,2.88
2023-06-14T18:27:10.143Z,3.00
2023-06-14T18:29:37.363Z,3.25
2023-06-14T18:32:05.034Z,3.40
2023-06-14T18:34:32.311Z,3.40
2023-06-14T18:36:59.494Z,3.45
2023-06-14T18:39:26.788Z,3.33
2023-06-14T18:41:54.196Z,3.45
2023-06-14T18:44:21.429Z,3.70
2023-06-14T18:46:48.692Z,3.47
2023-06-14T18:49:16.035Z,3.67
2023-06-14T18:51:43.780Z,3.78
2023-06-14T18:54:11.553Z,3.55
2023-06-14T18:56:39.094Z,3.22
2023-06-14T18:59:06.297Z,3.58
2023-06-14T19:01:33.622Z,3.90
2023-06-14T19:04:01.044Z,4.10
2023-06-14T19:06:28.457Z,3.50
2023-06-14T19:08:55.911Z,4.47
2023-06-14T19:11:23.138Z,3.88
2023-06-14T19:13:50.544Z,3.95
2023-06-14T19:16:17.705Z,4.03
2023-06-14T19:18:45.069Z,3.95
2023-06-14T19:21:12.378Z,3.88
2023-06-14T19:23:39.731Z,4.15
2023-06-14T19:26:07.882Z,4.25
2023-06-14T19:28:36.588Z,4.55
2023-06-14T19:31:03.740Z,4.38
2023-06-14T19:33:30.932Z,3.92
2023-06-14T19:35:58.099Z,4.20
2023-06-14T19:38:25.477Z,4.10
2023-06-14T19:40:52.758Z,4.05
2023-06-14T19:43:19.968Z,3.90
2023-06-14T19:45:47.381Z,3.65
2023-06-14T19:48:20.674Z,4.30
2023-06-14T19:50:51.475Z,3.85
2023-06-14T19:55:46.607Z,3.85
2023-06-14T19:58:13.854Z,4.15
2023-06-14T20:00:41.174Z,4.35
2023-06-14T20:03:08.514Z,4.50
2023-06-14T20:05:36.570Z,4.22
2023-06-14T20:08:04.308Z,4.60
2023-06-14T20:10:31.684Z,5.00
2023-06-14T20:12:59.006Z,5.22
2023-06-14T20:15:27.246Z,4.80
2023-06-14T20:17:54.419Z,4.97
2023-06-14T20:20:21.602Z,4.10
2023-06-14T20:22:48.753Z,4.78
2023-06-14T20:25:16.379Z,4.45
2023-06-14T20:27:43.867Z,5.30
2023-06-14T20:30:11.692Z,6.38
2023-06-14T20:32:38.980Z,4.03
2023-06-14T20:35:06.573Z,5.95
2023-06-14T20:37:33.824Z,4.75
2023-06-14T20:40:06.997Z,4.80
2023-06-14T20:42:34.805Z,4.30
2023-06-14T20:45:03.778Z,5.75
2023-06-14T20:47:34.520Z,4.70
2023-06-14T20:50:01.837Z,4.85
2023-06-14T20:52:30.943Z,5.60
2023-06-14T20:54:59.035Z,4.40
2023-06-14T20:57:26.746Z,4.50
2023-06-14T20:59:53.974Z,4.13
2023-06-14T21:02:21.420Z,4.18
2023-06-14T21:04:48.773Z,4.10
2023-06-14T21:07:16.398Z,4.78
2023-06-14T21:09:43.894Z,3.95
2023-06-14T21:12:13.058Z,4.43
2023-06-14T21:14:40.941Z,4.18
2023-06-14T21:17:09.863Z,4.70
2023-06-14T21:19:38.743Z,4.05
2023-06-14T21:22:06.450Z,5.65
2023-06-14T21:24:33.849Z,4.53
2023-06-14T21:27:01.332Z,4.82
2023-06-14T21:29:28.995Z,4.43
2023-06-14T21:31:56.893Z,4.07
2023-06-14T21:34:24.312Z,4.00
2023-06-14T21:36:53.698Z,4.50
2023-06-14T21:39:24.789Z,4.03
2023-06-14T21:41:53.467Z,4.40
2023-06-14T21:44:20.637Z,4.35
2023-06-14T21:46:47.874Z,3.65
2023-06-14T21:49:15.062Z,4.00
2023-06-14T21:51:42.430Z,4.22
2023-06-14T21:54:11.119Z,4.28
2023-06-14T21:56:38.527Z,4.18
2023-06-14T21:59:05.687Z,4.07
2023-06-14T22:01:32.865Z,4.30
2023-06-14T22:04:00.152Z,4.03
2023-06-14T22:06:27.426Z,4.00
2023-06-14T22:08:55.013Z,3.60
2023-06-14T22:11:22.332Z,3.22
2023-06-14T22:13:50.565Z,3.97
2023-06-14T22:16:17.810Z,3.30
2023-06-14T22:18:47.057Z,3.92
2023-06-14T22:21:20.636Z,3.63
2023-06-14T22:23:48.086Z,4.32
2023-06-14T22:26:20.591Z,3.30
2023-06-14T22:28:54.468Z,3.58
2023-06-14T22:31:21.810Z,4.45
2023-06-14T22:33:52.336Z,3.70
2023-06-14T22:36:19.582Z,3.63
2023-06-14T22:38:47.067Z,3.80
2023-06-14T22:41:14.804Z,4.10
2023-06-14T22:43:44.475Z,3.47
2023-06-14T22:46:20.842Z,3.25
2023-06-14T22:48:51.978Z,3.72
2023-06-14T22:51:21.345Z,3.75
2023-06-14T22:53:52.638Z,4.03
2023-06-14T22:56:21.687Z,3.65
2023-06-14T22:58:49.602Z,3.80
2023-06-14T23:01:19.117Z,4.07
2023-06-14T23:03:49.184Z,4.00
2023-06-14T23:06:26.144Z,3.88
2023-06-14T23:08:57.637Z,4.20
2023-06-14T23:11:25.153Z,4.18
2023-06-14T23:13:54.568Z,4.47
2023-06-14T23:16:22.331Z,4.28
2023-06-14T23:18:49.860Z,4.57
2023-06-14T23:21:18.374Z,4.20
2023-06-14T23:23:51.302Z,4.05
2023-06-14T23:26:22.118Z,4.82
2023-06-14T23:28:54.926Z,4.78
2023-06-14T23:31:24.063Z,4.43
2023-06-14T23:33:53.936Z,4.88
2023-06-14T23:36:21.739Z,4.32
2023-06-14T23:38:49.689Z,4.50
2023-06-14T23:41:17.593Z,4.70
2023-06-14T23:43:46.486Z,4.40
2023-06-14T23:46:16.887Z,4.45
2023-06-14T23:48:44.679Z,4.70
2023-06-14T23:51:11.873Z,4.65
2023-06-14T23:53:39.122Z,4.82
2023-06-14T23:56:10.767Z,4.30
2023-06-14T23:58:38.886Z,4.43
